Time;durP1;ratioP1;P1;durP2;ratioP2;P2;SDS_P1;SDS_P2;PMS_P1;PMS_P2;Temp;Humidity;BMP_temperature;BMP_pressure;BME280_temperature;BME280_humidity;BME280_pressure;Samples;Min_cycle;Max_cycle;Signal;HPM_P1;HPM_P2
2021/07/10 00:00:35;;;;;;;3.25;2.70;;;22.20;99.90;;;;;;5072036;28;20051;-69
2021/07/10 00:03:01;;;;;;;2.70;2.50;;;22.20;99.90;;;;;;5071946;28;20025;-68
2021/07/10 00:05:27;;;;;;;3.08;2.78;;;22.20;99.90;;;;;;5071626;28;20044;-69
2021/07/10 00:07:52;;;;;;;2.92;2.65;;;22.20;99.90;;;;;;5071178;28;20060;-70
2021/07/10 00:10:18;;;;;;;3.25;2.95;;;22.20;99.90;;;;;;5071552;28;20020;-69
2021/07/10 00:12:45;;;;;;;3.08;2.78;;;22.10;99.90;;;;;;5071227;28;20048;-69
2021/07/10 00:15:13;;;;;;;2.83;2.47;;;22.10;99.90;;;;;;5071374;28;20064;-71
2021/07/10 00:17:40;;;;;;;2.97;2.60;;;22.10;99.90;;;;;;5071198;28;20496;-70
2021/07/10 00:20:07;;;;;;;2.90;2.63;;;22.10;99.90;;;;;;5071454;28;20154;-68
2021/07/10 00:22:33;;;;;;;3.05;2.60;;;22.00;99.90;;;;;;5070352;28;20089;-70
2021/07/10 00:24:59;;;;;;;3.22;2.92;;;22.10;99.90;;;;;;5070809;28;20103;-70
2021/07/10 00:27:25;;;;;;;3.60;2.72;;;22.10;99.90;;;;;;5071328;28;20125;-68
2021/07/10 00:29:50;;;;;;;3.95;2.30;;;22.00;99.90;;;;;;5071155;28;20059;-68
2021/07/10 00:32:16;;;;;;;3.20;2.78;;;22.00;99.90;;;;;;5071401;28;20032;-66
2021/07/10 00:34:41;;;;;;;2.88;2.63;;;22.00;99.90;;;;;;5071065;28;20473;-67
2021/07/10 00:37:07;;;;;;;3.30;3.00;;;22.00;99.90;;;;;;5071212;28;20099;-68
2021/07/10 00:39:33;;;;;;;2.88;2.67;;;22.00;99.90;;;;;;5071461;28;20423;-67
2021/07/10 00:41:58;;;;;;;3.28;2.33;;;22.00;99.90;;;;;;5070990;28;20028;-68
2021/07/10 00:44:24;;;;;;;4.18;3.17;;;22.00;99.90;;;;;;5071183;28;20547;-68
2021/07/10 00:46:49;;;;;;;4.97;2.80;;;22.00;99.90;;;;;;5070892;28;20091;-71
2021/07/10 00:49:15;;;;;;;2.97;2.67;;;22.00;99.90;;;;;;5069864;28;20032;-69
2021/07/10 00:51:41;;;;;;;3.53;3.15;;;21.90;99.90;;;;;;5070925;28;20112;-70
2021/07/10 00:54:06;;;;;;;5.22;3.28;;;22.00;99.90;;;;;;5070835;28;20036;-69
2021/07/10 00:56:32;;;;;;;3.05;2.75;;;21.90;99.90;;;;;;5071484;28;20460;-67
2021/07/10 00:58:59;;;;;;;3.60;2.92;;;21.90;99.90;;;;;;5070821;28;20036;-69
2021/07/10 01:01:25;;;;;;;3.42;2.88;;;21.90;99.90;;;;;;5071046;28;20040;-70
2021/07/10 01:03:51;;;;;;;3.50;2.78;;;21.90;99.90;;;;;;5070666;28;20453;-71
2021/07/10 01:06:17;;;;;;;3.45;2.97;;;21.90;99.90;;;;;;5070988;28;20071;-69
2021/07/10 01:08:45;;;;;;;3.50;3.20;;;21.90;99.90;;;;;;5070710;28;20056;-68
2021/07/10 01:11:12;;;;;;;3.38;2.88;;;21.90;99.90;;;;;;5070741;28;20025;-70
2021/07/10 01:13:37;;;;;;;3.88;2.70;;;21.90;99.90;;;;;;5070386;28;20119;-67
2021/07/10 01:16:04;;;;;;;2.90;2.60;;;21.80;99.90;;;;;;5071201;28;20099;-67
2021/07/10 01:18:31;;;;;;;3.47;2.78;;;21.80;99.90;;;;;;5071288;28;20043;-68
2021/07/10 01:20:57;;;;;;;3.22;2.92;;;21.80;99.90;;;;;;5070624;28;20024;-71
2021/07/10 01:23:24;;;;;;;3.58;3.28;;;21.80;99.90;;;;;;5070839;28;20582;-69
2021/07/10 01:25:50;;;;;;;4.85;2.92;;;21.80;99.90;;;;;;5070714;28;20119;-70
2021/07/10 01:28:17;;;;;;;3.40;2.80;;;21.80;99.90;;;;;;5070781;28;20035;-69
2021/07/10 01:30:44;;;;;;;3.00;2.70;;;21.80;99.90;;;;;;5070268;28;20032;-67
2021/07/10 01:33:10;;;;;;;3.30;2.83;;;21.80;99.90;;;;;;5070643;28;20497;-67
2021/07/10 01:35:37;;;;;;;3.25;2.95;;;21.80;99.90;;;;;;5070489;28;20033;-67
2021/07/10 01:38:08;;;;;;;3.63;3.05;;;21.80;99.90;;;;;;5072754;28;20024;-70
2021/07/10 01:40:34;;;;;;;3.65;3.17;;;21.80;99.90;;;;;;5074604;28;20469;-68
2021/07/10 01:43:06;;;;;;;3.30;3.00;;;21.80;99.90;;;;;;5074396;28;20023;-67
2021/07/10 01:45:36;;;;;;;5.20;3.20;;;21.70;99.90;;;;;;5074522;28;20092;-68
2021/07/10 01:48:03;;;;;;;3.80;3.20;;;21.70;99.90;;;;;;5074516;28;20439;-67
2021/07/10 01:50:29;;;;;;;3.50;3.08;;;21.70;99.90;;;;;;5073934;28;20479;-68
2021/07/10 01:52:55;;;;;;;3.40;3.10;;;21.70;99.90;;;;;;5073835;28;20180;-69
2021/07/10 01:55:21;;;;;;;3.40;3.10;;;21.70;99.90;;;;;;5073901;28;20035;-69
2021/07/10 01:57:49;;;;;;;3.47;3.17;;;21.70;99.90;;;;;;5073707;28;20025;-68
2021/07/10 02:00:16;;;;;;;3.92;3.30;;;21.70;99.90;;;;;;5073782;28;20021;-68
2021/07/10 02:02:42;;;;;;;3.60;3.30;;;21.70;99.90;;;;;;5073523;28;20090;-69
2021/07/10 02:05:09;;;;;;;3.38;3.03;;;21.70;99.90;;;;;;5073719;28;20473;-68
2021/07/10 02:07:36;;;;;;;3.30;3.00;;;21.70;99.90;;;;;;5073667;28;20021;-68
2021/07/10 02:10:04;;;;;;;3.30;3.00;;;21.70;99.90;;;;;;5106522;28;20032;-68
2021/07/10 02:12:29;;;;;;;3.40;3.10;;;21.70;99.90;;;;;;5073599;28;20035;-68
2021/07/10 02:14:55;;;;;;;3.58;3.28;;;21.70;99.90;;;;;;5073339;28;20032;-68
2021/07/10 02:17:21;;;;;;;3.58;3.28;;;21.70;99.90;;;;;;5106212;28;20032;-68
2021/07/10 02:19:46;;;;;;;3.85;3.45;;;21.60;99.90;;;;;;5073037;28;20031;-69
2021/07/10 02:22:12;;;;;;;4.03;3.50;;;21.60;99.90;;;;;;5073464;28;20028;-70
2021/07/10 02:24:38;;;;;;;4.20;3.38;;;21.60;99.90;;;;;;5073203;28;20028;-70
2021/07/10 02:27:03;;;;;;;3.50;3.20;;;21.60;99.90;;;;;;5073767;28;20104;-70
2021/07/10 02:29:29;;;;;;;4.15;3.70;;;21.60;99.90;;;;;;5073403;28;20078;-70
2021/07/10 02:31:55;;;;;;;4.85;3.20;;;21.60;99.90;;;;;;5073030;28;20039;-70
2021/07/10 02:34:21;;;;;;;3.97;3.60;;;21.60;99.90;;;;;;5073205;28;20036;-70
2021/07/10 02:36:46;;;;;;;3.63;3.30;;;21.60;99.90;;;;;;5073116;28;20024;-70
2021/07/10 02:39:12;;;;;;;4.28;3.88;;;21.60;99.90;;;;;;5073152;28;20033;-70
2021/07/10 02:41:38;;;;;;;3.97;3.38;;;21.60;99.90;;;;;;5073103;28;20392;-69
2021/07/10 02:44:05;;;;;;;4.47;3.72;;;21.60;99.90;;;;;;5071900;28;20021;-68
2021/07/10 02:46:31;;;;;;;3.97;3.55;;;21.60;99.90;;;;;;5073145;28;20059;-71
2021/07/10 02:48:58;;;;;;;3.92;3.53;;;21.50;99.90;;;;;;5072552;28;20020;-68
2021/07/10 02:51:25;;;;;;;3.53;3.22;;;21.50;99.90;;;;;;5072692;28;20489;-69
2021/07/10 02:53:53;;;;;;;4.18;3.50;;;21.60;99.90;;;;;;5071314;28;20063;-70
2021/07/10 02:56:23;;;;;;;3.67;3.38;;;21.50;99.90;;;;;;5072684;28;20044;-71
2021/07/10 02:58:49;;;;;;;3.67;3.28;;;21.50;99.90;;;;;;5072539;28;20024;-69
2021/07/10 03:01:14;;;;;;;3.72;3.28;;;21.50;99.90;;;;;;5072622;28;20480;-71
2021/07/10 03:03:40;;;;;;;5.03;3.70;;;21.50;99.90;;;;;;5072271;28;20082;-70
2021/07/10 03:06:06;;;;;;;3.80;3.33;;;21.60;99.90;;;;;;5072689;28;20032;-70
2021/07/10 03:08:31;;;;;;;3.97;3.58;;;21.50;99.90;;;;;;5072761;28;20031;-70
2021/07/10 03:10:57;;;;;;;4.65;3.50;;;21.50;99.90;;;;;;5072315;28;20074;-69
2021/07/10 03:13:23;;;;;;;3.60;3.30;;;21.50;99.90;;;;;;5072135;28;20093;-69
2021/07/10 03:15:49;;;;;;;3.78;3.20;;;21.50;99.90;;;;;;5072058;28;20028;-71
2021/07/10 03:18:15;;;;;;;3.92;3.53;;;21.50;99.90;;;;;;5072377;28;20028;-71
2021/07/10 03:20:40;;;;;;;3.72;3.38;;;21.50;99.90;;;;;;5071997;28;20024;-69
2021/07/10 03:23:06;;;;;;;4.03;3.60;;;21.50;99.90;;;;;;5072075;28;20036;-71
2021/07/10 03:25:32;;;;;;;4.65;3.75;;;21.50;99.90;;;;;;5071716;28;20024;-69
2021/07/10 03:27:58;;;;;;;4.30;3.55;;;21.40;99.90;;;;;;5072056;28;20396;-70
2021/07/10 03:30:25;;;;;;;3.92;3.38;;;21.40;99.90;;;;;;5071863;28;20024;-70
2021/07/10 03:32:51;;;;;;;4.20;3.80;;;21.50;99.90;;;;;;5071933;28;20028;-69
2021/07/10 03:35:18;;;;;;;4.00;3.60;;;21.40;99.90;;;;;;5071528;28;20032;-69
2021/07/10 03:37:46;;;;;;;4.03;3.63;;;21.40;99.90;;;;;;5071873;28;20020;-69
2021/07/10 03:40:13;;;;;;;4.13;3.58;;;21.40;99.90;;;;;;5071654;28;20074;-69
2021/07/10 03:42:40;;;;;;;3.83;3.40;;;21.40;99.90;;;;;;5071970;28;20025;-69
2021/07/10 03:45:08;;;;;;;4.35;3.80;;;21.40;99.90;;;;;;5071868;28;20484;-68
2021/07/10 03:47:34;;;;;;;5.57;3.70;;;21.40;99.90;;;;;;5071954;28;20361;-70
2021/07/10 03:50:00;;;;;;;5.78;3.90;;;21.40;99.90;;;;;;5071715;28;20034;-70
2021/07/10 03:52:25;;;;;;;4.28;3.55;;;21.40;99.90;;;;;;5071500;28;20136;-69
2021/07/10 03:54:51;;;;;;;4.30;3.90;;;21.40;99.90;;;;;;5071625;28;20116;-71
2021/07/10 03:57:17;;;;;;;3.90;3.60;;;21.40;99.90;;;;;;5071471;28;20059;-69
2021/07/10 03:59:42;;;;;;;4.35;3.80;;;21.40;99.90;;;;;;5071163;28;20059;-70
2021/07/10 04:02:08;;;;;;;4.43;3.60;;;21.40;99.90;;;;;;5071243;28;20016;-69
2021/07/10 04:04:34;;;;;;;5.38;3.88;;;21.40;99.90;;;;;;5071933;28;20033;-69
2021/07/10 04:07:00;;;;;;;3.80;3.40;;;21.40;99.90;;;;;;5071493;28;20089;-69
2021/07/10 04:09:25;;;;;;;5.38;3.90;;;21.30;99.90;;;;;;5071470;28;20027;-71
2021/07/10 04:11:51;;;;;;;3.67;3.30;;;21.30;99.90;;;;;;5071531;28;20408;-71
2021/07/10 04:14:17;;;;;;;4.28;3.88;;;21.30;99.90;;;;;;5071032;28;20044;-71
2021/07/10 04:16:43;;;;;;;4.25;3.67;;;21.30;99.90;;;;;;5071454;28;20029;-70
2021/07/10 04:19:08;;;;;;;3.85;3.45;;;21.30;99.90;;;;;;5071171;28;20370;-71
2021/07/10 04:21:34;;;;;;;4.15;3.72;;;21.30;99.90;;;;;;5071804;28;20491;-70
2021/07/10 04:24:00;;;;;;;4.28;3.85;;;21.30;99.90;;;;;;5071360;28;20027;-70
2021/07/10 04:26:25;;;;;;;4.05;3.60;;;21.30;99.90;;;;;;5071126;28;20052;-70
2021/07/10 04:28:51;;;;;;;4.45;3.55;;;21.30;99.90;;;;;;5071217;28;20023;-69
2021/07/10 04:31:17;;;;;;;4.00;3.60;;;21.30;99.90;;;;;;5071117;28;20024;-68
2021/07/10 04:33:42;;;;;;;4.80;3.80;;;21.30;99.90;;;;;;5069851;28;20039;-70
2021/07/10 04:36:08;;;;;;;5.28;3.90;;;21.30;99.90;;;;;;5070989;28;20071;-69
2021/07/10 04:38:37;;;;;;;4.32;3.58;;;21.30;99.90;;;;;;5071458;28;20017;-70
2021/07/10 04:41:04;;;;;;;4.35;3.85;;;21.30;99.90;;;;;;5071472;28;20086;-71
2021/07/10 04:43:30;;;;;;;4.50;3.58;;;21.30;99.90;;;;;;5071091;28;20104;-71
2021/07/10 04:45:56;;;;;;;4.18;3.78;;;21.30;99.90;;;;;;5071304;28;20102;-70
2021/07/10 04:48:22;;;;;;;3.50;3.20;;;21.30;99.90;;;;;;5070975;28;20044;-71
2021/07/10 04:50:47;;;;;;;4.90;3.75;;;21.30;99.90;;;;;;5071136;28;20025;-69
2021/07/10 04:53:13;;;;;;;3.75;3.35;;;21.30;99.90;;;;;;5069500;28;20469;-70
2021/07/10 04:55:39;;;;;;;3.38;3.08;;;21.30;99.90;;;;;;5071052;28;20032;-70
2021/07/10 04:58:04;;;;;;;4.10;3.70;;;21.30;99.90;;;;;;5071271;28;20036;-69
2021/07/10 05:00:30;;;;;;;4.15;3.60;;;21.30;99.90;;;;;;5071038;28;20455;-69
2021/07/10 05:02:56;;;;;;;4.00;3.60;;;21.20;99.90;;;;;;5071036;28;20056;-71
2021/07/10 05:05:21;;;;;;;4.45;3.58;;;21.30;99.90;;;;;;5070999;28;20373;-70
2021/07/10 05:07:47;;;;;;;4.07;3.65;;;21.20;99.90;;;;;;5070966;28;20031;-70
2021/07/10 05:10:13;;;;;;;4.22;3.78;;;21.30;99.90;;;;;;5070754;28;20100;-71
2021/07/10 05:12:39;;;;;;;5.80;3.85;;;21.20;99.90;;;;;;5072172;28;20040;-69
2021/07/10 05:15:05;;;;;;;4.47;3.78;;;21.20;99.90;;;;;;5074879;28;20036;-69
2021/07/10 05:17:31;;;;;;;4.05;3.65;;;21.20;99.90;;;;;;5074509;28;20078;-70
2021/07/10 05:19:57;;;;;;;3.92;3.53;;;21.20;99.90;;;;;;5074623;28;20389;-70
2021/07/10 05:22:22;;;;;;;4.60;3.70;;;21.20;99.90;;;;;;5085420;28;20036;-69
2021/07/10 05:24:48;;;;;;;4.78;3.42;;;21.20;99.90;;;;;;5092685;28;20024;-68
2021/07/10 05:27:14;;;;;;;4.40;3.95;;;21.20;99.90;;;;;;5093996;28;20111;-69
2021/07/10 05:29:39;;;;;;;4.43;4.00;;;21.20;99.90;;;;;;5077176;28;20028;-71
2021/07/10 05:32:05;;;;;;;4.22;3.80;;;21.20;99.90;;;;;;5074664;28;20081;-72
2021/07/10 05:34:31;;;;;;;4.07;3.67;;;21.20;99.90;;;;;;5074010;28;20064;-72
2021/07/10 05:36:56;;;;;;;4.20;3.80;;;21.20;99.90;;;;;;5075484;28;20025;-72
2021/07/10 05:39:22;;;;;;;4.20;3.70;;;21.20;99.90;;;;;;5081382;28;20035;-70
2021/07/10 05:41:49;;;;;;;3.78;3.42;;;21.20;99.90;;;;;;5074139;28;20100;-71
2021/07/10 05:44:14;;;;;;;4.00;3.50;;;21.20;99.90;;;;;;5075010;28;20174;-70
2021/07/10 05:46:40;;;;;;;4.53;4.00;;;21.20;99.90;;;;;;5074313;28;20076;-70
2021/07/10 05:49:06;;;;;;;4.50;3.90;;;21.20;99.90;;;;;;5075921;28;20028;-69
2021/07/10 05:51:32;;;;;;;4.43;4.03;;;21.20;99.90;;;;;;5072461;28;20028;-68
2021/07/10 05:53:57;;;;;;;4.75;4.22;;;21.20;99.90;;;;;;5073843;28;20412;-70
2021/07/10 05:56:23;;;;;;;4.90;4.00;;;21.20;99.90;;;;;;5073941;28;20984;-71
2021/07/10 05:58:49;;;;;;;4.85;4.32;;;21.20;99.90;;;;;;5073869;28;20024;-70
2021/07/10 06:01:14;;;;;;;4.32;3.92;;;21.20;99.90;;;;;;5073568;28;20020;-71
2021/07/10 06:03:40;;;;;;;4.80;4.30;;;21.10;99.90;;;;;;5072422;28;20081;-70
2021/07/10 06:06:06;;;;;;;5.03;4.28;;;21.20;99.90;;;;;;5072642;28;20025;-69
2021/07/10 06:08:31;;;;;;;4.90;3.80;;;21.20;99.90;;;;;;5081828;28;20043;-69
2021/07/10 06:10:57;;;;;;;4.30;3.75;;;21.20;99.90;;;;;;5073496;28;20028;-71
2021/07/10 06:13:23;;;;;;;4.28;3.88;;;21.20;99.90;;;;;;5073161;28;20086;-69
2021/07/10 06:15:48;;;;;;;5.15;4.38;;;21.30;99.90;;;;;;5073610;28;20021;-70
2021/07/10 06:18:14;;;;;;;7.43;3.95;;;21.30;99.90;;;;;;5073234;28;20028;-69
2021/07/10 06:20:40;;;;;;;6.05;4.30;;;21.30;99.90;;;;;;5074359;28;20025;-69
2021/07/10 06:23:07;;;;;;;7.97;4.15;;;21.30;99.90;;;;;;5085022;28;20032;-69
2021/07/10 06:25:35;;;;;;;6.78;4.40;;;21.30;99.90;;;;;;5093043;28;20039;-69
2021/07/10 06:28:01;;;;;;;5.15;4.00;;;21.30;99.90;;;;;;5090802;28;20388;-70
2021/07/10 06:30:27;;;;;;;9.43;3.83;;;21.30;99.90;;;;;;5092912;28;20495;-65
2021/07/10 06:32:53;;;;;;;9.02;4.22;;;21.30;99.90;;;;;;5093102;28;20039;-66
2021/07/10 06:35:18;;;;;;;4.75;4.00;;;21.30;99.90;;;;;;5089280;28;20032;-65
2021/07/10 06:37:44;;;;;;;4.93;4.10;;;21.30;99.90;;;;;;5091582;28;20032;-80
2021/07/10 06:40:13;;;;;;;6.53;4.25;;;21.30;99.90;;;;;;5077240;28;20407;-74
2021/07/10 06:42:38;;;;;;;6.18;4.40;;;21.40;99.90;;;;;;5073146;28;20443;-69
2021/07/10 06:45:06;;;;;;;6.47;4.75;;;21.40;99.90;;;;;;5073356;28;20017;-63
2021/07/10 06:47:32;;;;;;;7.10;5.57;;;21.40;99.90;;;;;;5073770;28;20059;-61
2021/07/10 06:49:59;;;;;;;11.27;6.57;;;21.40;99.90;;;;;;5072780;28;20060;-67
2021/07/10 06:52:25;;;;;;;8.60;6.30;;;21.40;99.90;;;;;;5072529;28;20384;-66
2021/07/10 06:54:50;;;;;;;9.25;6.63;;;21.50;99.90;;;;;;5072510;28;20033;-63
2021/07/10 06:57:16;;;;;;;12.98;7.60;;;21.50;99.90;;;;;;5071157;28;20100;-63
2021/07/10 06:59:42;;;;;;;10.77;7.07;;;21.50;99.90;;;;;;5071360;28;20024;-65
2021/07/10 07:02:08;;;;;;;11.95;8.55;;;21.50;99.90;;;;;;5072230;28;20040;-64
2021/07/10 07:04:33;;;;;;;13.30;9.40;;;21.50;99.90;;;;;;5069105;28;20012;-67
2021/07/10 07:06:59;;;;;;;15.13;10.32;;;21.50;99.90;;;;;;5073761;28;20453;-71
2021/07/10 07:09:24;;;;;;;14.48;10.18;;;21.50;99.90;;;;;;5071797;28;20071;-70
2021/07/10 07:11:51;;;;;;;18.40;10.88;;;21.50;99.90;;;;;;5071068;28;20059;-71
2021/07/10 07:14:18;;;;;;;16.08;11.55;;;21.50;99.90;;;;;;5070742;28;20040;-63
2021/07/10 07:16:43;;;;;;;14.82;11.45;;;21.50;99.90;;;;;;5070927;28;20358;-69
2021/07/10 07:19:09;;;;;;;16.65;11.82;;;21.50;99.90;;;;;;5070634;28;20025;-73
2021/07/10 07:21:35;;;;;;;19.20;12.07;;;21.50;99.90;;;;;;5074169;28;20035;-67
2021/07/10 07:24:00;;;;;;;16.50;11.77;;;21.50;99.90;;;;;;5070901;28;20047;-82
2021/07/10 07:26:26;;;;;;;16.27;11.65;;;21.50;99.90;;;;;;5072028;28;20027;-68
2021/07/10 07:28:52;;;;;;;15.98;11.88;;;21.50;99.90;;;;;;5075373;28;20028;-70
2021/07/10 07:31:18;;;;;;;18.63;11.55;;;21.50;99.90;;;;;;5084968;28;20067;-80
2021/07/10 07:33:43;;;;;;;16.50;12.32;;;21.50;99.90;;;;;;5071190;28;20032;-76
2021/07/10 07:36:09;;;;;;;16.38;11.80;;;21.50;99.90;;;;;;5077809;28;20025;-73
2021/07/10 07:38:36;;;;;;;19.88;11.70;;;21.50;99.90;;;;;;5075338;28;20528;-70
2021/07/10 07:41:02;;;;;;;19.77;12.52;;;21.40;99.90;;;;;;5071593;28;20036;-64
2021/07/10 07:43:28;;;;;;;18.73;12.20;;;21.50;99.90;;;;;;5081788;28;20105;-65
2021/07/10 07:45:54;;;;;;;19.75;12.68;;;21.50;99.90;;;;;;5074639;28;20025;-70
2021/07/10 07:48:19;;;;;;;21.13;11.80;;;21.40;99.90;;;;;;5071516;28;20078;-77
2021/07/10 07:50:45;;;;;;;18.48;11.93;;;21.50;99.90;;;;;;5071561;28;20028;-69
2021/07/10 07:53:11;;;;;;;19.58;12.00;;;21.50;99.90;;;;;;5071625;28;20016;-71
2021/07/10 07:55:37;;;;;;;18.80;12.05;;;21.50;99.90;;;;;;5072309;28;20599;-69
2021/07/10 07:58:05;;;;;;;17.83;12.30;;;21.60;99.90;;;;;;5073984;28;20039;-70
2021/07/10 08:00:31;;;;;;;19.88;12.70;;;21.60;99.90;;;;;;5071475;28;20123;-69
2021/07/10 08:02:57;;;;;;;16.98;11.70;;;21.60;99.90;;;;;;5079726;28;20020;-69
2021/07/10 08:05:23;;;;;;;19.40;12.13;;;21.60;99.90;;;;;;5091208;28;20097;-71
2021/07/10 08:07:50;;;;;;;28.25;14.70;;;21.60;99.90;;;;;;5090011;28;20028;-69
2021/07/10 08:10:17;;;;;;;35.83;15.80;;;21.60;99.90;;;;;;5081919;28;20032;-67
2021/07/10 08:12:45;;;;;;;28.33;14.82;;;21.60;99.90;;;;;;5071188;28;20062;-64
2021/07/10 08:15:13;;;;;;;29.48;13.55;;;21.60;99.90;;;;;;5071294;28;20028;-67
2021/07/10 08:17:38;;;;;;;21.58;13.40;;;21.70;99.90;;;;;;5077974;28;20026;-70
2021/07/10 08:20:06;;;;;;;20.25;13.48;;;21.70;99.90;;;;;;5090104;28;20107;-68
2021/07/10 08:22:31;;;;;;;22.20;12.18;;;21.70;99.90;;;;;;5081156;28;20020;-72
2021/07/10 08:24:57;;;;;;;18.98;12.43;;;21.70;99.90;;;;;;5070089;28;20076;-72
2021/07/10 08:27:23;;;;;;;22.08;13.30;;;21.70;99.90;;;;;;5070865;28;20435;-71
2021/07/10 08:29:49;;;;;;;20.25;13.55;;;21.80;99.90;;;;;;5077938;28;20016;-70
2021/07/10 08:32:14;;;;;;;20.20;12.32;;;21.70;99.90;;;;;;5070936;28;20024;-70
2021/07/10 08:34:40;;;;;;;20.52;11.77;;;21.80;99.90;;;;;;5071255;28;20058;-70
2021/07/10 08:37:06;;;;;;;15.57;10.55;;;21.80;99.90;;;;;;5076791;28;20361;-70
2021/07/10 08:39:32;;;;;;;18.85;11.10;;;21.80;99.90;;;;;;5073317;28;20028;-69
2021/07/10 08:41:58;;;;;;;17.00;10.32;;;21.90;99.90;;;;;;5090020;28;20871;-69
2021/07/10 08:44:26;;;;;;;14.23;9.75;;;21.90;99.90;;;;;;5091199;28;20024;-69
2021/07/10 08:46:52;;;;;;;16.30;9.63;;;21.90;99.90;;;;;;5093216;28;20032;-70
2021/07/10 08:49:18;;;;;;;14.90;9.00;;;21.90;99.90;;;;;;5095153;28;20055;-74
2021/07/10 08:51:48;;;;;;;14.32;9.18;;;21.90;99.90;;;;;;5080047;28;20579;-71
2021/07/10 08:54:17;;;;;;;14.63;8.48;;;21.90;99.90;;;;;;5078065;28;20040;-70
2021/07/10 08:56:44;;;;;;;13.95;8.55;;;22.00;99.90;;;;;;5095328;28;20387;-71
2021/07/10 08:59:13;;;;;;;11.43;8.10;;;22.00;99.90;;;;;;5091780;28;20495;-68
2021/07/10 09:01:40;;;;;;;10.73;8.05;;;22.00;99.90;;;;;;5079066;28;20024;-68
2021/07/10 09:04:06;;;;;;;14.20;8.20;;;22.00;99.90;;;;;;5076695;28;20036;-67
2021/07/10 09:06:32;;;;;;;11.35;7.63;;;22.00;99.90;;;;;;5073512;28;20346;-67
2021/07/10 09:09:00;;;;;;;14.88;7.68;;;22.00;99.90;;;;;;5076259;28;20086;-67
2021/07/10 09:11:26;;;;;;;10.20;7.35;;;22.00;99.90;;;;;;5073201;28;20035;-66
2021/07/10 09:13:54;;;;;;;10.68;7.45;;;22.10;99.90;;;;;;5073249;28;20016;-67
2021/07/10 09:16:31;;;;;;;10.95;7.57;;;22.10;99.90;;;;;;5072800;28;20028;-67
2021/07/10 09:19:06;;;;;;;10.40;7.28;;;22.10;99.90;;;;;;5071018;28;20096;-67
2021/07/10 09:21:44;;;;;;;11.65;6.72;;;22.10;99.90;;;;;;5073192;28;20020;-68
2021/07/10 09:24:24;;;;;;;9.35;6.93;;;22.10;99.90;;;;;;5072248;28;20389;-68
2021/07/10 09:26:52;;;;;;;12.43;7.50;;;22.10;99.90;;;;;;5076467;28;20035;-68
2021/07/10 09:29:21;;;;;;;9.10;7.13;;;22.20;99.90;;;;;;5081879;28;20024;-69
2021/07/10 09:32:08;;;;;;;9.90;7.22;;;22.20;99.90;;;;;;5075403;28;20024;-69
2021/07/10 09:34:38;;;;;;;9.75;6.90;;;22.20;99.90;;;;;;5075815;28;20027;-70
2021/07/10 09:37:07;;;;;;;9.40;7.07;;;22.20;99.90;;;;;;5075321;28;20064;-71
2021/07/10 09:39:43;;;;;;;10.23;7.30;;;22.20;99.90;;;;;;5094814;28;20024;-70
2021/07/10 09:42:10;;;;;;;9.75;6.68;;;22.20;99.90;;;;;;5094438;28;20028;-69
2021/07/10 09:44:47;;;;;;;9.68;6.88;;;22.30;99.90;;;;;;5088872;28;20460;-69
2021/07/10 09:47:15;;;;;;;9.10;6.55;;;22.30;99.90;;;;;;5072483;28;20090;-69
2021/07/10 09:49:45;;;;;;;8.93;6.63;;;22.30;99.90;;;;;;5073910;28;20020;-69
2021/07/10 09:52:21;;;;;;;7.43;6.30;;;22.30;99.90;;;;;;5074931;28;20024;-67
2021/07/10 09:54:55;;;;;;;9.68;6.47;;;22.30;99.90;;;;;;5074006;28;20036;-67
2021/07/10 09:57:42;;;;;;;9.68;5.97;;;22.30;99.90;;;;;;5083826;28;20027;-68
2021/07/10 10:00:15;;;;;;;9.68;6.85;;;22.30;99.90;;;;;;5075816;28;20048;-67
2021/07/10 10:02:49;;;;;;;9.05;6.82;;;22.30;99.90;;;;;;5091138;28;20054;-68
2021/07/10 10:05:21;;;;;;;9.07;6.72;;;22.40;99.90;;;;;;5073467;28;20086;-68
2021/07/10 10:07:50;;;;;;;8.27;6.63;;;22.40;99.90;;;;;;5080437;28;20020;-70
2021/07/10 10:10:37;;;;;;;7.43;6.15;;;22.30;99.90;;;;;;5081016;28;20032;-66
2021/07/10 10:13:08;;;;;;;8.02;6.10;;;22.40;99.90;;;;;;5091906;28;20079;-71
2021/07/10 10:15:35;;;;;;;7.18;6.10;;;22.30;99.90;;;;;;5081805;28;20067;-70
2021/07/10 10:18:01;;;;;;;7.15;6.25;;;22.30;99.90;;;;;;5073437;28;20036;-69
2021/07/10 10:20:27;;;;;;;9.35;6.38;;;22.40;99.90;;;;;;5072757;28;20024;-67
2021/07/10 10:22:53;;;;;;;9.68;6.60;;;22.40;99.90;;;;;;5081756;28;20032;-68
2021/07/10 10:25:19;;;;;;;8.52;6.22;;;22.40;99.90;;;;;;5085112;28;20036;-67
2021/07/10 10:27:50;;;;;;;9.07;6.72;;;22.40;99.90;;;;;;5071848;28;20067;-67
2021/07/10 10:30:18;;;;;;;7.40;6.22;;;22.40;99.90;;;;;;5073171;28;20202;-66
2021/07/10 10:32:44;;;;;;;7.43;6.35;;;22.40;99.90;;;;;;5073280;28;20035;-68
2021/07/10 10:35:10;;;;;;;6.88;5.95;;;22.40;99.90;;;;;;5071808;28;20036;-67
2021/07/10 10:37:41;;;;;;;8.15;6.97;;;22.30;99.90;;;;;;5073479;28;20027;-66
2021/07/10 10:40:21;;;;;;;9.70;6.38;;;22.30;99.90;;;;;;5073536;28;20029;-67
2021/07/10 10:42:54;;;;;;;8.10;6.43;;;22.30;99.90;;;;;;5084631;28;20063;-68
2021/07/10 10:45:28;;;;;;;9.73;6.20;;;22.30;99.90;;;;;;5093137;28;20020;-68
2021/07/10 10:47:54;;;;;;;8.45;6.03;;;22.40;99.90;;;;;;5093236;28;20443;-66
2021/07/10 10:50:34;;;;;;;7.53;5.75;;;22.40;99.90;;;;;;5092985;28;20024;-68
2021/07/10 10:53:00;;;;;;;8.52;5.75;;;22.40;99.90;;;;;;5093205;28;20111;-66
2021/07/10 10:55:29;;;;;;;7.38;6.00;;;22.40;99.90;;;;;;5092835;28;20060;-67
2021/07/10 10:57:54;;;;;;;7.07;6.00;;;22.30;99.90;;;;;;5093045;28;20537;-69
2021/07/10 11:00:23;;;;;;;7.00;6.22;;;22.40;99.90;;;;;;5092690;28;20036;-67
2021/07/10 11:03:11;;;;;;;6.47;5.68;;;22.40;99.90;;;;;;5090829;28;20418;-68
2021/07/10 11:05:48;;;;;;;6.40;5.65;;;22.40;99.90;;;;;;5093019;28;20024;-68
2021/07/10 11:08:19;;;;;;;6.38;5.25;;;22.40;99.90;;;;;;5092564;28;20024;-65
2021/07/10 11:10:50;;;;;;;6.63;5.30;;;22.40;99.90;;;;;;5092415;28;20028;-70
2021/07/10 11:13:56;;;;;;;8.55;5.70;;;22.40;99.90;;;;;;5092335;28;20038;-65
2021/07/10 11:16:22;;;;;;;10.18;5.22;;;22.40;99.90;;;;;;5089090;28;20089;-65
2021/07/10 11:19:04;;;;;;;6.53;5.20;;;22.50;99.90;;;;;;5092797;28;20121;-66
2021/07/10 11:21:38;;;;;;;5.60;4.85;;;22.40;99.90;;;;;;5073504;28;20384;-69
2021/07/10 11:26:47;;;;;;;7.97;5.03;;;22.50;99.90;;;;;;5072405;28;20032;-71
2021/07/10 11:29:29;;;;;;;7.07;5.03;;;22.40;99.90;;;;;;5071963;28;20549;-69
2021/07/10 11:32:15;;;;;;;6.18;4.93;;;22.40;99.90;;;;;;5072166;28;20072;-71
2021/07/10 11:34:43;;;;;;;6.68;5.07;;;22.40;99.90;;;;;;5072280;28;20039;-68
2021/07/10 11:37:19;;;;;;;7.57;4.97;;;22.40;99.90;;;;;;5072789;28;20475;-70
2021/07/10 11:39:53;;;;;;;6.85;5.43;;;22.40;99.90;;;;;;5072040;28;20025;-68
2021/07/10 11:42:20;;;;;;;5.32;4.80;;;22.40;99.90;;;;;;5071918;28;20417;-69
2021/07/10 11:44:48;;;;;;;5.95;4.90;;;22.40;99.90;;;;;;5072008;28;20032;-69
2021/07/10 11:47:29;;;;;;;6.25;5.28;;;22.50;99.90;;;;;;5071849;28;20032;-68
2021/07/10 11:49:57;;;;;;;5.63;4.90;;;22.40;99.90;;;;;;5072082;28;20024;-69
2021/07/10 11:52:22;;;;;;;6.45;5.20;;;22.50;99.90;;;;;;5071564;28;20256;-68
2021/07/10 11:54:57;;;;;;;6.53;4.75;;;22.50;99.90;;;;;;5077654;28;20115;-68
2021/07/10 11:57:25;;;;;;;6.50;5.10;;;22.50;99.90;;;;;;5074042;28;20025;-68
2021/07/10 11:59:51;;;;;;;6.20;5.03;;;22.50;99.90;;;;;;5071732;28;20035;-67
2021/07/10 12:02:25;;;;;;;6.47;5.03;;;22.40;99.90;;;;;;5088808;28;20052;-67
2021/07/10 12:05:15;;;;;;;5.88;4.93;;;22.40;99.90;;;;;;5091792;28;20027;-67
2021/07/10 12:07:52;;;;;;;5.85;5.00;;;22.50;99.90;;;;;;5084465;28;20055;-65
2021/07/10 12:10:23;;;;;;;5.80;5.05;;;22.50;99.90;;;;;;5091535;28;20024;-70
2021/07/10 12:12:57;;;;;;;6.65;4.63;;;22.50;99.90;;;;;;5082542;28;20032;-69
2021/07/10 12:15:25;;;;;;;;;;;22.50;99.90;;;;;;5079434;28;20558;-69
2021/07/10 12:17:53;;;;;;;5.60;4.93;;;22.50;99.90;;;;;;5079479;28;19905;-70
2021/07/10 12:20:21;;;;;;;5.07;4.47;;;22.50;99.90;;;;;;5086677;28;20020;-68
2021/07/10 12:22:50;;;;;;;6.20;4.93;;;22.50;99.90;;;;;;5091292;28;20020;-68
2021/07/10 12:25:16;;;;;;;5.45;4.85;;;22.50;99.90;;;;;;5078911;28;20070;-70
2021/07/10 12:27:41;;;;;;;5.82;4.95;;;22.50;99.90;;;;;;5071554;28;20021;-69
2021/07/10 12:30:08;;;;;;;6.95;5.10;;;22.50;99.90;;;;;;5071664;28;20151;-68
2021/07/10 12:32:33;;;;;;;5.72;5.13;;;22.50;99.90;;;;;;5071715;28;20029;-71
2021/07/10 12:34:59;;;;;;;5.93;4.65;;;22.50;99.90;;;;;;5071320;28;20511;-71
2021/07/10 12:37:27;;;;;;;5.20;4.68;;;22.50;99.90;;;;;;5087703;28;20024;-71
2021/07/10 12:40:07;;;;;;;5.38;4.50;;;22.50;99.90;;;;;;5072119;28;20033;-71
2021/07/10 12:42:33;;;;;;;5.30;4.45;;;22.50;99.90;;;;;;5066907;28;20025;-69
2021/07/10 12:44:59;;;;;;;6.32;4.85;;;22.50;99.90;;;;;;5070130;28;20020;-69
2021/07/10 12:47:25;;;;;;;5.32;4.80;;;22.50;99.90;;;;;;5069444;28;20115;-68